createdAt,value
2019-01-27T00:02:27.495Z,4.20
2019-01-27T00:04:57.869Z,4.30
2019-01-27T00:07:28.321Z,4.30
2019-01-27T00:09:58.725Z,4.20
2019-01-27T00:12:29.116Z,4.20
2019-01-27T00:14:59.477Z,4.20
2019-01-27T00:17:29.909Z,4.20
2019-01-27T00:20:00.297Z,4.20
2019-01-27T00:22:30.687Z,4.10
2019-01-27T00:25:02.608Z,4.00
2019-01-27T00:27:33.006Z,4.00
2019-01-27T00:30:03.518Z,4.00
2019-01-27T00:32:33.901Z,4.00
2019-01-27T00:35:04.591Z,4.00
2019-01-27T00:37:34.951Z,4.00
2019-01-27T00:40:06.573Z,4.10
2019-01-27T00:42:36.921Z,4.00
2019-01-27T00:45:09.426Z,4.00
2019-01-27T00:47:39.773Z,4.00
2019-01-27T00:50:11.430Z,4.00
2019-01-27T00:52:41.818Z,4.00
2019-01-27T00:55:15.462Z,4.10
2019-01-27T00:57:45.858Z,4.00
2019-01-27T01:00:19.482Z,4.10
2019-01-27T01:02:50.063Z,4.10
2019-01-27T01:05:20.542Z,4.20
2019-01-27T01:07:51.012Z,4.10
2019-01-27T01:10:22.272Z,4.00
2019-01-27T01:12:52.775Z,4.00
2019-01-27T01:15:23.522Z,4.00
2019-01-27T01:17:53.902Z,4.00
2019-01-27T01:20:24.390Z,4.00
2019-01-27T01:22:54.737Z,4.00
2019-01-27T01:25:25.138Z,4.00
2019-01-27T01:27:55.569Z,4.00
2019-01-27T01:30:28.117Z,4.00
2019-01-27T01:32:58.645Z,3.90
2019-01-27T01:35:29.009Z,4.00
2019-01-27T01:37:59.592Z,4.00
2019-01-27T01:40:29.989Z,4.00
2019-01-27T01:43:00.351Z,4.00
2019-01-27T01:45:32.909Z,3.90
2019-01-27T01:48:03.609Z,3.90
2019-01-27T01:50:33.967Z,3.90
2019-01-27T01:53:05.140Z,3.90
2019-01-27T01:55:35.486Z,3.90
2019-01-27T01:58:06.665Z,3.90
2019-01-27T02:00:37.029Z,3.80
2019-01-27T02:03:07.452Z,3.90
2019-01-27T02:05:37.809Z,3.80
2019-01-27T02:08:08.233Z,3.90
2019-01-27T02:10:38.610Z,4.00
2019-01-27T02:13:09.045Z,4.00
2019-01-27T02:16:07.551Z,4.10
2019-01-27T02:18:41.517Z,4.00
2019-01-27T02:21:11.895Z,4.10
2019-01-27T02:23:42.315Z,4.10
2019-01-27T02:26:12.665Z,4.10
2019-01-27T02:28:43.217Z,4.20
2019-01-27T02:31:13.616Z,4.20
2019-01-27T02:33:44.002Z,4.20
2019-01-27T02:36:14.668Z,4.20
2019-01-27T02:38:45.277Z,4.20
2019-01-27T02:41:15.620Z,4.30
2019-01-27T02:43:45.994Z,4.30
2019-01-27T02:46:16.338Z,4.40
2019-01-27T02:48:46.881Z,4.40
2019-01-27T02:51:17.261Z,4.50
2019-01-27T02:53:47.614Z,4.60
2019-01-27T02:56:17.986Z,4.60
2019-01-27T02:58:48.390Z,4.70
2019-01-27T03:01:18.768Z,4.70
2019-01-27T03:03:49.217Z,4.80
2019-01-27T03:06:29.433Z,4.80
2019-01-27T03:09:10.579Z,4.80
2019-01-27T03:11:50.763Z,4.80
2019-01-27T03:14:22.022Z,4.80
2019-01-27T03:16:53.845Z,4.80
2019-01-27T03:19:24.194Z,4.80
2019-01-27T03:21:54.563Z,4.90
2019-01-27T03:24:24.929Z,4.90
2019-01-27T03:26:55.310Z,4.80
2019-01-27T03:29:25.702Z,4.90
2019-01-27T03:31:56.236Z,4.80
2019-01-27T03:34:26.734Z,4.80
2019-01-27T03:36:57.205Z,4.80
2019-01-27T03:39:27.545Z,4.80
2019-01-27T03:41:57.911Z,4.80
2019-01-27T03:44:28.344Z,4.90
2019-01-27T03:46:58.737Z,4.80
2019-01-27T03:49:29.072Z,4.90
2019-01-27T03:51:59.413Z,4.90
2019-01-27T03:54:29.750Z,4.90
2019-01-27T03:57:00.159Z,4.90
2019-01-27T03:59:30.553Z,4.90
2019-01-27T04:02:00.921Z,4.90
2019-01-27T04:04:31.266Z,4.90
2019-01-27T04:07:01.726Z,4.80
2019-01-27T04:09:32.187Z,4.90
2019-01-27T04:12:02.641Z,4.90
2019-01-27T04:14:32.996Z,4.80
2019-01-27T04:17:03.482Z,4.80
2019-01-27T04:19:33.814Z,4.70
2019-01-27T04:22:04.269Z,4.80
2019-01-27T04:24:34.645Z,4.90
2019-01-27T04:27:05.206Z,4.80
2019-01-27T04:29:35.557Z,4.70
2019-01-27T04:32:06.204Z,4.70
2019-01-27T04:34:36.554Z,4.70
2019-01-27T04:37:06.886Z,4.70
2019-01-27T04:39:37.246Z,4.70
2019-01-27T04:42:07.586Z,4.60
2019-01-27T04:44:37.923Z,4.60
2019-01-27T04:47:08.367Z,4.60
2019-01-27T04:49:38.805Z,4.60
2019-01-27T04:52:09.141Z,4.60
2019-01-27T04:54:39.497Z,4.60
2019-01-27T04:57:09.841Z,4.70
2019-01-27T04:59:40.237Z,4.70
2019-01-27T05:02:10.598Z,4.70
2019-01-27T05:04:41.953Z,4.70
2019-01-27T05:07:12.300Z,4.70
2019-01-27T05:09:42.646Z,4.70
2019-01-27T05:12:13.041Z,4.80
2019-01-27T05:14:43.392Z,4.70
2019-01-27T05:17:13.727Z,4.70
2019-01-27T05:19:44.085Z,4.70
2019-01-27T05:22:14.498Z,4.70
2019-01-27T05:24:44.855Z,4.70
2019-01-27T05:27:15.625Z,4.70
2019-01-27T05:29:45.966Z,4.70
2019-01-27T05:32:16.322Z,4.70
2019-01-27T05:34:46.661Z,4.60
2019-01-27T05:37:17.008Z,4.60
2019-01-27T05:39:47.357Z,4.70
2019-01-27T05:42:17.904Z,4.70
2019-01-27T05:44:48.452Z,4.70
2019-01-27T05:47:18.805Z,4.70
2019-01-27T05:49:49.167Z,4.70
2019-01-27T05:52:19.556Z,4.70
2019-01-27T05:54:49.974Z,4.80
2019-01-27T05:57:20.317Z,4.70
2019-01-27T05:59:50.775Z,4.70
2019-01-27T06:02:21.439Z,4.70
2019-01-27T06:04:51.776Z,4.70
2019-01-27T06:07:22.132Z,4.70
2019-01-27T06:09:52.473Z,4.70
2019-01-27T06:12:22.841Z,4.70
2019-01-27T06:14:53.202Z,4.70
2019-01-27T06:17:23.586Z,4.70
2019-01-27T06:19:53.950Z,4.60
2019-01-27T06:22:24.287Z,4.60
2019-01-27T06:24:54.637Z,4.60
2019-01-27T06:27:25.001Z,4.50
2019-01-27T06:29:55.368Z,4.50
2019-01-27T06:32:47.689Z,4.50
2019-01-27T06:35:18.081Z,4.50
2019-01-27T06:37:48.489Z,4.50
2019-01-27T06:40:18.862Z,4.60
2019-01-27T06:42:49.200Z,4.60
2019-01-27T06:45:19.595Z,4.60
2019-01-27T06:47:50.032Z,4.60
2019-01-27T06:50:20.365Z,4.70
2019-01-27T06:52:50.724Z,4.60
2019-01-27T06:55:21.205Z,4.60
2019-01-27T06:57:51.545Z,4.60
2019-01-27T07:00:59.453Z,4.60
2019-01-27T07:03:42.534Z,4.60
2019-01-27T07:06:30.432Z,4.60
2019-01-27T07:09:25.745Z,4.60
2019-01-27T07:12:08.193Z,4.50
2019-01-27T07:14:58.505Z,4.60
2019-01-27T07:18:05.985Z,4.60
2019-01-27T07:20:41.842Z,4.50
2019-01-27T07:23:49.294Z,4.50
2019-01-27T07:26:37.525Z,4.60
2019-01-27T07:29:22.657Z,4.50
2019-01-27T07:32:13.998Z,4.60
2019-01-27T07:35:02.418Z,4.60
2019-01-27T07:38:00.539Z,4.60
2019-01-27T07:40:48.704Z,4.50
2019-01-27T07:43:50.377Z,4.50
2019-01-27T07:46:38.642Z,4.50
2019-01-27T07:49:26.609Z,4.60
2019-01-27T07:52:24.921Z,4.60
2019-01-27T07:55:09.745Z,4.60
2019-01-27T07:57:51.142Z,4.60
2019-01-27T08:00:31.833Z,4.60
2019-01-27T08:03:21.159Z,4.60
2019-01-27T08:06:00.713Z,4.70
2019-01-27T08:08:40.474Z,4.60
2019-01-27T08:11:28.376Z,4.60
2019-01-27T08:14:13.278Z,4.60
2019-01-27T08:17:03.612Z,4.50
2019-01-27T08:19:41.065Z,4.50
2019-01-27T08:22:36.607Z,4.50
2019-01-27T08:25:31.329Z,4.50
2019-01-27T08:28:35.834Z,4.70
2019-01-27T08:31:28.286Z,4.60
2019-01-27T08:34:27.471Z,4.60
2019-01-27T08:37:15.663Z,4.70
2019-01-27T08:40:14.079Z,4.90
2019-01-27T08:42:59.159Z,5.10
2019-01-27T08:45:48.590Z,5.00
2019-01-27T08:48:18.969Z,4.90
2019-01-27T08:50:49.321Z,4.80
2019-01-27T08:53:20.018Z,4.70
2019-01-27T08:55:50.401Z,4.80
2019-01-27T08:58:20.894Z,5.10
2019-01-27T09:00:59.596Z,5.30
2019-01-27T09:03:57.732Z,5.30
2019-01-27T09:06:43.563Z,5.40
2019-01-27T09:09:23.977Z,5.10
2019-01-27T09:12:16.695Z,5.10
2019-01-27T09:15:12.140Z,5.00
2019-01-27T09:18:01.418Z,5.20
2019-01-27T09:20:53.973Z,5.10
2019-01-27T09:23:52.714Z,5.00
2019-01-27T09:26:31.844Z,5.00
2019-01-27T09:29:14.657Z,4.80
2019-01-27T09:32:10.105Z,4.80
2019-01-27T09:35:02.262Z,4.80
2019-01-27T09:37:50.226Z,5.00
2019-01-27T09:40:43.316Z,5.10
2019-01-27T09:43:35.773Z,5.30
2019-01-27T09:46:31.445Z,5.40
2019-01-27T09:49:20.780Z,5.60
2019-01-27T09:52:06.002Z,5.70
2019-01-27T09:54:55.424Z,5.90
2019-01-27T09:58:03.100Z,5.90
2019-01-27T10:01:05.187Z,6.00
2019-01-27T10:04:00.507Z,5.80
2019-01-27T10:07:02.132Z,5.90
2019-01-27T10:09:50.487Z,5.90
2019-01-27T10:12:37.407Z,6.10
2019-01-27T10:15:28.381Z,6.30
2019-01-27T10:18:05.930Z,6.10
2019-01-27T10:20:54.074Z,6.10
2019-01-27T10:23:29.664Z,6.00
2019-01-27T10:26:19.020Z,5.80
2019-01-27T10:29:08.373Z,5.80
2019-01-27T10:32:04.067Z,5.80
2019-01-27T10:34:56.204Z,5.80
2019-01-27T10:37:42.032Z,6.00
2019-01-27T10:40:46.876Z,5.90
2019-01-27T10:43:39.033Z,6.00
2019-01-27T10:46:28.532Z,5.90
2019-01-27T10:49:05.758Z,5.90
2019-01-27T10:51:51.627Z,5.90
2019-01-27T10:54:43.975Z,5.90
2019-01-27T10:57:20.131Z,6.00
2019-01-27T11:00:02.574Z,6.10
2019-01-27T11:02:47.917Z,6.40
2019-01-27T11:05:36.097Z,6.70
2019-01-27T11:08:24.451Z,6.70
2019-01-27T11:11:17.201Z,6.60
2019-01-27T11:14:05.328Z,6.50
2019-01-27T11:16:56.890Z,6.60
2019-01-27T11:19:40.696Z,6.90
2019-01-27T11:22:20.751Z,7.00
2019-01-27T11:25:12.927Z,6.80
2019-01-27T11:27:55.709Z,6.80
2019-01-27T11:30:33.501Z,6.80
2019-01-27T11:33:31.805Z,6.80
2019-01-27T11:36:21.285Z,6.70
2019-01-27T11:39:13.767Z,6.60
2019-01-27T11:42:08.099Z,6.60
2019-01-27T11:44:57.772Z,6.70
2019-01-27T11:47:49.970Z,6.70
2019-01-27T11:50:24.040Z,6.90
2019-01-27T11:52:57.502Z,6.90
2019-01-27T11:55:27.898Z,6.70
2019-01-27T11:57:58.368Z,6.60
2019-01-27T12:00:34.649Z,6.70
2019-01-27T12:03:05.201Z,6.50
2019-01-27T12:05:35.583Z,6.50
2019-01-27T12:08:06.137Z,6.30
2019-01-27T12:10:36.501Z,6.40
2019-01-27T12:13:06.952Z,6.40
2019-01-27T12:15:37.389Z,6.40
2019-01-27T12:18:08.013Z,6.50
2019-01-27T12:20:39.012Z,6.60
2019-01-27T12:23:09.417Z,6.60
2019-01-27T12:25:39.957Z,6.60
2019-01-27T12:28:10.570Z,6.60
2019-01-27T12:30:41.051Z,6.50
2019-01-27T12:33:11.447Z,6.60
2019-01-27T12:35:41.857Z,6.70
2019-01-27T12:38:12.217Z,6.80
2019-01-27T12:40:42.690Z,6.80
2019-01-27T12:43:13.137Z,6.70
2019-01-27T12:45:43.629Z,6.70
2019-01-27T12:48:14.174Z,6.50
2019-01-27T12:50:44.574Z,6.90
2019-01-27T12:53:15.166Z,7.60
2019-01-27T12:55:45.534Z,7.70
2019-01-27T12:58:16.065Z,7.70
2019-01-27T13:00:53.218Z,7.60
2019-01-27T13:03:23.590Z,7.30
2019-01-27T13:05:54.045Z,6.90
2019-01-27T13:08:25.907Z,6.40
2019-01-27T13:10:56.367Z,6.10
2019-01-27T13:13:26.794Z,6.00
2019-01-27T13:15:57.195Z,6.10
2019-01-27T13:18:27.818Z,6.00
2019-01-27T13:20:58.274Z,6.10
2019-01-27T13:23:28.729Z,6.10
2019-01-27T13:25:59.091Z,6.30
2019-01-27T13:28:29.546Z,6.30
2019-01-27T13:31:01.416Z,6.50
2019-01-27T13:33:32.033Z,6.50
2019-01-27T13:36:02.489Z,6.40
2019-01-27T13:38:32.916Z,6.50
2019-01-27T13:41:03.372Z,6.50
2019-01-27T13:43:33.765Z,6.70
2019-01-27T13:46:04.331Z,6.70
2019-01-27T13:48:34.712Z,6.80
2019-01-27T13:51:05.216Z,6.80
2019-01-27T13:53:35.581Z,7.00
2019-01-27T13:56:05.978Z,7.10
2019-01-27T13:58:36.422Z,7.40
2019-01-27T14:01:07.000Z,7.50
2019-01-27T14:03:37.383Z,7.40
2019-01-27T14:06:07.825Z,7.30
2019-01-27T14:08:38.255Z,7.20
2019-01-27T14:11:08.658Z,7.10
2019-01-27T14:13:39.088Z,7.00
2019-01-27T14:16:09.663Z,7.00
2019-01-27T14:18:40.065Z,7.00
2019-01-27T14:21:16.426Z,7.00
2019-01-27T14:23:42.489Z,7.00
2019-01-27T14:26:12.863Z,7.00
2019-01-27T14:28:43.250Z,6.90
2019-01-27T14:31:13.646Z,6.90
2019-01-27T14:33:44.118Z,7.00
2019-01-27T14:36:14.526Z,7.00
2019-01-27T14:38:44.925Z,7.10
2019-01-27T14:41:15.325Z,7.10
2019-01-27T14:43:45.700Z,7.10
2019-01-27T14:46:16.192Z,7.10
2019-01-27T14:48:46.628Z,7.10
2019-01-27T14:51:17.022Z,7.10
2019-01-27T14:53:47.382Z,7.10
2019-01-27T14:56:17.776Z,7.10
2019-01-27T14:58:48.218Z,7.20
2019-01-27T15:01:18.621Z,7.10
2019-01-27T15:03:49.070Z,7.20
2019-01-27T15:06:19.590Z,7.40
2019-01-27T15:08:50.168Z,7.60
2019-01-27T15:11:20.728Z,7.60
2019-01-27T15:13:51.128Z,7.50
2019-01-27T15:16:21.597Z,7.40
2019-01-27T15:18:51.991Z,7.50
2019-01-27T15:21:25.357Z,7.50
2019-01-27T15:23:55.796Z,7.70
2019-01-27T15:26:26.268Z,7.60
2019-01-27T15:28:56.710Z,7.70
2019-01-27T15:31:27.076Z,7.50
2019-01-27T15:33:57.474Z,7.50
2019-01-27T15:36:27.907Z,7.30
2019-01-27T15:38:58.483Z,7.20
2019-01-27T15:41:28.968Z,7.20
2019-01-27T15:43:59.358Z,7.00
2019-01-27T15:46:29.789Z,6.90
2019-01-27T15:49:00.239Z,6.80
2019-01-27T15:51:30.868Z,6.60
2019-01-27T15:54:01.355Z,6.60
2019-01-27T15:56:31.794Z,6.60
2019-01-27T15:59:02.184Z,6.60
2019-01-27T16:01:32.561Z,6.60
2019-01-27T16:04:03.026Z,6.50
2019-01-27T16:06:33.479Z,6.50
2019-01-27T16:09:06.118Z,6.50
2019-01-27T16:11:36.475Z,6.30
2019-01-27T16:14:07.035Z,6.20
2019-01-27T16:16:37.429Z,6.20
2019-01-27T16:19:07.783Z,6.10
2019-01-27T16:21:38.164Z,6.10
2019-01-27T16:24:19.937Z,6.00
2019-01-27T16:26:50.318Z,5.90
2019-01-27T16:29:31.501Z,5.80
2019-01-27T16:32:09.475Z,5.80
2019-01-27T16:34:44.203Z,5.70
2019-01-27T16:37:14.658Z,5.50
2019-01-27T16:39:45.038Z,5.40
2019-01-27T16:42:15.704Z,5.30
2019-01-27T16:44:46.120Z,5.30
2019-01-27T16:47:18.997Z,5.10
2019-01-27T16:49:48.559Z,5.00
2019-01-27T16:52:18.979Z,4.90
2019-01-27T16:54:49.476Z,4.90
2019-01-27T16:57:19.914Z,4.80
2019-01-27T16:59:50.335Z,4.80
2019-01-27T17:02:20.744Z,4.70
2019-01-27T17:04:51.265Z,4.60
2019-01-27T17:07:21.648Z,4.60
2019-01-27T17:09:52.042Z,4.60
2019-01-27T17:12:22.418Z,4.60
2019-01-27T17:14:52.934Z,4.50
2019-01-27T17:17:23.302Z,4.50
2019-01-27T17:19:53.830Z,4.50
2019-01-27T17:22:24.310Z,4.60
2019-01-27T17:24:54.686Z,4.60
2019-01-27T17:27:25.221Z,4.60
2019-01-27T17:29:55.701Z,4.60
2019-01-27T17:32:26.118Z,4.60
2019-01-27T17:34:56.482Z,4.70
2019-01-27T17:37:26.915Z,4.50
2019-01-27T17:39:57.313Z,4.50
2019-01-27T17:42:27.790Z,4.60
2019-01-27T17:44:58.222Z,4.60
2019-01-27T17:47:28.641Z,4.60
2019-01-27T17:49:59.057Z,4.60
2019-01-27T17:52:29.517Z,4.60
2019-01-27T17:54:59.925Z,4.40
2019-01-27T17:57:55.113Z,4.50
2019-01-27T18:01:02.671Z,4.30
2019-01-27T18:04:04.019Z,4.30
2019-01-27T18:06:41.141Z,4.30
2019-01-27T18:09:24.503Z,4.30
2019-01-27T18:12:03.530Z,4.30
2019-01-27T18:14:36.798Z,4.20
2019-01-27T18:17:07.229Z,4.20
2019-01-27T18:19:37.649Z,4.20
2019-01-27T18:22:08.060Z,4.10
2019-01-27T18:24:38.473Z,4.10
2019-01-27T18:27:08.900Z,4.10
2019-01-27T18:29:39.379Z,4.00
2019-01-27T18:32:09.802Z,4.00
2019-01-27T18:34:40.258Z,4.10
2019-01-27T18:37:10.671Z,4.00
2019-01-27T18:39:41.163Z,4.00
2019-01-27T18:42:11.852Z,4.00
2019-01-27T18:44:42.278Z,3.90
2019-01-27T18:47:13.001Z,4.00
2019-01-27T18:49:43.416Z,4.00
2019-01-27T18:52:13.883Z,4.10
2019-01-27T18:55:12.618Z,4.10
2019-01-27T18:57:49.488Z,4.10
2019-01-27T19:00:39.027Z,4.10
2019-01-27T19:03:20.598Z,4.10
2019-01-27T19:06:16.486Z,4.00
2019-01-27T19:08:58.984Z,4.10
2019-01-27T19:11:36.162Z,4.10
2019-01-27T19:14:24.346Z,4.10
2019-01-27T19:17:16.658Z,4.10
2019-01-27T19:19:55.181Z,4.10
2019-01-27T19:22:31.408Z,4.10
2019-01-27T19:25:20.743Z,4.00
2019-01-27T19:28:10.019Z,4.00
2019-01-27T19:31:02.896Z,4.00
2019-01-27T19:33:39.277Z,4.10
2019-01-27T19:36:34.898Z,4.00
2019-01-27T19:39:28.345Z,4.00
2019-01-27T19:42:17.692Z,4.00
2019-01-27T19:45:02.290Z,3.90
2019-01-27T19:47:51.639Z,4.00
2019-01-27T19:50:43.765Z,3.90
2019-01-27T19:53:39.307Z,3.90
2019-01-27T19:56:27.193Z,3.90
2019-01-27T19:59:16.581Z,3.90
2019-01-27T20:02:08.735Z,3.90
2019-01-27T20:05:04.206Z,3.90
2019-01-27T20:07:53.478Z,3.90
2019-01-27T20:10:41.739Z,4.00
2019-01-27T20:13:37.831Z,4.10
2019-01-27T20:16:33.034Z,4.10
2019-01-27T20:19:22.394Z,4.20
2019-01-27T20:22:00.108Z,4.20
2019-01-27T20:24:48.284Z,4.30
2019-01-27T20:27:29.215Z,4.30
2019-01-27T20:30:27.837Z,4.20
2019-01-27T20:33:15.539Z,4.30
2019-01-27T20:36:04.959Z,4.20
2019-01-27T20:38:54.253Z,4.10
2019-01-27T20:41:53.712Z,4.10
2019-01-27T20:44:48.962Z,4.10
2019-01-27T20:47:40.345Z,4.10
2019-01-27T20:50:48.758Z,4.10
2019-01-27T20:53:26.994Z,4.10
2019-01-27T20:56:16.421Z,4.00
2019-01-27T20:58:55.266Z,4.10
2019-01-27T21:01:34.210Z,3.90
2019-01-27T21:04:16.731Z,3.90
2019-01-27T21:07:12.078Z,3.70
2019-01-27T21:10:04.479Z,3.60
2019-01-27T21:12:54.403Z,3.70
2019-01-27T21:15:33.378Z,3.80
2019-01-27T21:18:21.530Z,3.80
2019-01-27T21:20:53.763Z,3.60
2019-01-27T21:23:24.017Z,3.60
2019-01-27T21:25:54.409Z,3.50
2019-01-27T21:28:24.822Z,3.50
2019-01-27T21:30:55.194Z,3.30
2019-01-27T21:33:25.647Z,3.30
2019-01-27T21:35:56.093Z,3.20
2019-01-27T21:38:26.569Z,3.30
2019-01-27T21:40:56.964Z,3.20
2019-01-27T21:43:27.381Z,3.10
2019-01-27T21:45:57.775Z,3.20
2019-01-27T21:48:28.222Z,3.30
2019-01-27T21:50:58.603Z,3.10
2019-01-27T21:53:28.983Z,3.20
2019-01-27T21:55:59.394Z,3.20
2019-01-27T21:58:29.768Z,3.30
2019-01-27T22:01:00.141Z,3.10
2019-01-27T22:03:30.510Z,3.30
2019-01-27T22:06:00.886Z,3.40
2019-01-27T22:08:31.338Z,3.50
2019-01-27T22:11:01.701Z,3.50
2019-01-27T22:13:32.943Z,3.50
2019-01-27T22:16:03.329Z,3.40
2019-01-27T22:18:34.009Z,3.50
2019-01-27T22:21:04.489Z,3.40
2019-01-27T22:23:34.877Z,3.40
2019-01-27T22:26:05.437Z,3.30
2019-01-27T22:28:35.788Z,3.10
2019-01-27T22:31:06.182Z,3.20
2019-01-27T22:33:36.529Z,3.20
2019-01-27T22:36:06.924Z,3.10
2019-01-27T22:38:37.282Z,3.10
2019-01-27T22:41:07.648Z,3.10
2019-01-27T22:43:38.003Z,3.10
2019-01-27T22:46:08.376Z,2.70
2019-01-27T22:48:38.828Z,2.80
2019-01-27T22:51:09.222Z,2.90
2019-01-27T22:53:39.578Z,3.00
2019-01-27T22:56:09.957Z,3.10
2019-01-27T22:58:40.322Z,3.00
2019-01-27T23:01:14.985Z,2.80
2019-01-27T23:03:50.731Z,2.60
2019-01-27T23:06:21.107Z,2.50
2019-01-27T23:08:51.478Z,2.60
2019-01-27T23:11:21.944Z,2.40
2019-01-27T23:13:52.349Z,2.40
2019-01-27T23:16:22.717Z,2.50
2019-01-27T23:18:53.101Z,2.70
2019-01-27T23:21:23.618Z,2.60
2019-01-27T23:23:54.018Z,2.30
2019-01-27T23:26:24.371Z,2.50
2019-01-27T23:28:54.742Z,2.60
2019-01-27T23:31:25.187Z,2.50
2019-01-27T23:33:55.617Z,2.60
2019-01-27T23:36:26.093Z,2.70
2019-01-27T23:38:56.487Z,2.90
2019-01-27T23:41:26.953Z,2.90
2019-01-27T23:43:57.385Z,2.90
2019-01-27T23:46:27.734Z,2.90
2019-01-27T23:48:58.114Z,2.70
2019-01-27T23:51:28.481Z,2.50
2019-01-27T23:53:58.855Z,2.40
2019-01-27T23:56:29.222Z,2.30
2019-01-27T23:58:59.594Z,2.20
